Terminal Aerodrome Forecast
Issued by NWS

Home | Current Version | Previous Version | Text Only | Print | Product List | Glossary On
Versions: 1 2 3 4 5 6 7 8 9 10 11 12 13 14 15 16 17 18 19 20 21 22 23 24 25 26 27 28 29 30 31 32 33 34 35
000
FTAK31 PAFA 300524
TAFAOR
TAF
PAOR 300524Z 3006/3106 24005KT 5SM -RA BR VCTS FEW030CB BKN040
      OVC060
      TEMPO 3006/3008 24015G20KT 2SM TSRA BR FEW025CB OVC040
     FM301100 30005KT 6SM BR OVC050
     FM301500 30005KT P6SM OVC050=

USA.gov is the U.S. government's official web portal to all federal, state and local government web resources and services.